sensor_id;sensor_type;location;lat;lon;timestamp;P1;durP1;ratioP1;P2;durP2;ratioP2
47349;SDS011;33088;51.982;5.872;2022-10-17T00:00:42;22.98;;;15.43;;
47349;SDS011;33088;51.982;5.872;2022-10-17T00:03:08;17.77;;;12.32;;
47349;SDS011;33088;51.982;5.872;2022-10-17T00:05:37;19.52;;;14.43;;
47349;SDS011;33088;51.982;5.872;2022-10-17T00:08:07;25.23;;;15.98;;
47349;SDS011;33088;51.982;5.872;2022-10-17T00:10:34;24.90;;;16.70;;
47349;SDS011;33088;51.982;5.872;2022-10-17T00:13:00;21.10;;;13.93;;
47349;SDS011;33088;51.982;5.872;2022-10-17T00:15:26;20.25;;;16.25;;
47349;SDS011;33088;51.982;5.872;2022-10-17T00:17:52;19.98;;;14.70;;
47349;SDS011;33088;51.982;5.872;2022-10-17T00:20:17;17.95;;;14.35;;
47349;SDS011;33088;51.982;5.872;2022-10-17T00:22:43;24.05;;;15.73;;
47349;SDS011;33088;51.982;5.872;2022-10-17T00:25:09;26.55;;;17.30;;
47349;SDS011;33088;51.982;5.872;2022-10-17T00:27:38;27.52;;;17.58;;
47349;SDS011;33088;51.982;5.872;2022-10-17T00:30:06;24.17;;;15.85;;
47349;SDS011;33088;51.982;5.872;2022-10-17T00:32:34;25.77;;;17.27;;
47349;SDS011;33088;51.982;5.872;2022-10-17T00:35:00;22.27;;;14.25;;
47349;SDS011;33088;51.982;5.872;2022-10-17T00:37:25;23.48;;;16.38;;
47349;SDS011;33088;51.982;5.872;2022-10-17T00:39:52;24.23;;;15.98;;
47349;SDS011;33088;51.982;5.872;2022-10-17T00:42:18;20.77;;;15.13;;
47349;SDS011;33088;51.982;5.872;2022-10-17T00:47:13;24.35;;;17.15;;
47349;SDS011;33088;51.982;5.872;2022-10-17T00:49:43;20.65;;;16.20;;
47349;SDS011;33088;51.982;5.872;2022-10-17T00:52:20;27.08;;;16.77;;
47349;SDS011;33088;51.982;5.872;2022-10-17T00:54:50;27.27;;;17.27;;
47349;SDS011;33088;51.982;5.872;2022-10-17T00:57:20;23.27;;;16.38;;
47349;SDS011;33088;51.982;5.872;2022-10-17T00:59:47;26.33;;;18.15;;
47349;SDS011;33088;51.982;5.872;2022-10-17T01:02:17;27.00;;;18.65;;
47349;SDS011;33088;51.982;5.872;2022-10-17T01:04:46;27.92;;;18.80;;
47349;SDS011;33088;51.982;5.872;2022-10-17T01:07:14;22.23;;;17.65;;
47349;SDS011;33088;51.982;5.872;2022-10-17T01:09:40;29.35;;;16.83;;
47349;SDS011;33088;51.982;5.872;2022-10-17T01:32:01;34.63;;;20.08;;
47349;SDS011;33088;51.982;5.872;2022-10-17T01:42:36;29.75;;;19.30;;
47349;SDS011;33088;51.982;5.872;2022-10-17T01:45:39;29.75;;;19.00;;
47349;SDS011;33088;51.982;5.872;2022-10-17T01:48:17;36.75;;;21.20;;
47349;SDS011;33088;51.982;5.872;2022-10-17T01:50:54;36.10;;;20.77;;
47349;SDS011;33088;51.982;5.872;2022-10-17T01:53:42;31.90;;;20.35;;
47349;SDS011;33088;51.982;5.872;2022-10-17T01:56:12;30.52;;;20.75;;
47349;SDS011;33088;51.982;5.872;2022-10-17T01:58:45;29.50;;;20.90;;
47349;SDS011;33088;51.982;5.872;2022-10-17T02:01:16;25.05;;;17.63;;
47349;SDS011;33088;51.982;5.872;2022-10-17T02:03:44;21.88;;;16.73;;
47349;SDS011;33088;51.982;5.872;2022-10-17T02:06:12;30.02;;;18.63;;
47349;SDS011;33088;51.982;5.872;2022-10-17T02:13:48;26.75;;;19.10;;
47349;SDS011;33088;51.982;5.872;2022-10-17T02:16:38;24.13;;;17.95;;
47349;SDS011;33088;51.982;5.872;2022-10-17T02:30:14;23.17;;;16.83;;
47349;SDS011;33088;51.982;5.872;2022-10-17T02:32:57;25.95;;;18.88;;
47349;SDS011;33088;51.982;5.872;2022-10-17T02:35:27;19.98;;;16.50;;
47349;SDS011;33088;51.982;5.872;2022-10-17T02:37:57;25.80;;;17.33;;
47349;SDS011;33088;51.982;5.872;2022-10-17T02:40:24;28.55;;;19.48;;
47349;SDS011;33088;51.982;5.872;2022-10-17T02:42:54;25.27;;;16.63;;
47349;SDS011;33088;51.982;5.872;2022-10-17T02:45:22;31.73;;;19.58;;
47349;SDS011;33088;51.982;5.872;2022-10-17T02:56:19;18.85;;;14.63;;
47349;SDS011;33088;51.982;5.872;2022-10-17T02:58:49;23.13;;;16.50;;
47349;SDS011;33088;51.982;5.872;2022-10-17T03:01:20;23.17;;;15.57;;
47349;SDS011;33088;51.982;5.872;2022-10-17T03:03:46;21.25;;;16.83;;
47349;SDS011;33088;51.982;5.872;2022-10-17T03:06:12;25.08;;;17.67;;
47349;SDS011;33088;51.982;5.872;2022-10-17T03:08:37;27.60;;;18.20;;
47349;SDS011;33088;51.982;5.872;2022-10-17T03:11:03;28.83;;;17.45;;
47349;SDS011;33088;51.982;5.872;2022-10-17T03:13:32;22.10;;;16.48;;
47349;SDS011;33088;51.982;5.872;2022-10-17T03:15:58;26.10;;;16.35;;
47349;SDS011;33088;51.982;5.872;2022-10-17T03:18:24;18.73;;;15.68;;
47349;SDS011;33088;51.982;5.872;2022-10-17T03:20:54;20.98;;;16.63;;
47349;SDS011;33088;51.982;5.872;2022-10-17T03:23:20;30.15;;;16.80;;
47349;SDS011;33088;51.982;5.872;2022-10-17T03:25:46;23.58;;;15.63;;
47349;SDS011;33088;51.982;5.872;2022-10-17T03:28:13;26.50;;;16.42;;
47349;SDS011;33088;51.982;5.872;2022-10-17T03:30:39;18.27;;;14.23;;
47349;SDS011;33088;51.982;5.872;2022-10-17T03:33:05;14.00;;;12.50;;
47349;SDS011;33088;51.982;5.872;2022-10-17T03:35:31;17.65;;;12.60;;
47349;SDS011;33088;51.982;5.872;2022-10-17T03:37:57;19.70;;;14.98;;
47349;SDS011;33088;51.982;5.872;2022-10-17T03:40:24;20.35;;;14.35;;
47349;SDS011;33088;51.982;5.872;2022-10-17T03:42:51;15.02;;;12.80;;
47349;SDS011;33088;51.982;5.872;2022-10-17T03:45:16;15.27;;;12.18;;
47349;SDS011;33088;51.982;5.872;2022-10-17T03:47:44;19.55;;;14.25;;
47349;SDS011;33088;51.982;5.872;2022-10-17T03:50:09;21.70;;;13.95;;
47349;SDS011;33088;51.982;5.872;2022-10-17T03:52:37;20.90;;;13.38;;
47349;SDS011;33088;51.982;5.872;2022-10-17T03:55:03;17.42;;;14.40;;
47349;SDS011;33088;51.982;5.872;2022-10-17T03:57:29;20.33;;;14.32;;
47349;SDS011;33088;51.982;5.872;2022-10-17T03:59:54;19.17;;;13.75;;
47349;SDS011;33088;51.982;5.872;2022-10-17T04:02:20;22.08;;;14.63;;
47349;SDS011;33088;51.982;5.872;2022-10-17T04:04:47;16.58;;;13.27;;
47349;SDS011;33088;51.982;5.872;2022-10-17T04:07:13;13.80;;;11.95;;
47349;SDS011;33088;51.982;5.872;2022-10-17T04:09:42;18.05;;;13.77;;
47349;SDS011;33088;51.982;5.872;2022-10-17T04:12:15;20.40;;;13.30;;
47349;SDS011;33088;51.982;5.872;2022-10-17T04:14:42;15.65;;;13.05;;
47349;SDS011;33088;51.982;5.872;2022-10-17T04:17:08;17.58;;;13.85;;
47349;SDS011;33088;51.982;5.872;2022-10-17T04:19:35;13.02;;;10.52;;
47349;SDS011;33088;51.982;5.872;2022-10-17T04:22:00;23.95;;;15.55;;
47349;SDS011;33088;51.982;5.872;2022-10-17T04:24:29;18.40;;;13.20;;
47349;SDS011;33088;51.982;5.872;2022-10-17T04:27:24;20.38;;;12.13;;
47349;SDS011;33088;51.982;5.872;2022-10-17T04:29:50;16.88;;;12.52;;
47349;SDS011;33088;51.982;5.872;2022-10-17T04:32:20;19.63;;;12.95;;
47349;SDS011;33088;51.982;5.872;2022-10-17T04:34:50;18.02;;;12.85;;
47349;SDS011;33088;51.982;5.872;2022-10-17T04:37:17;16.42;;;12.27;;
47349;SDS011;33088;51.982;5.872;2022-10-17T04:39:44;19.33;;;13.70;;
47349;SDS011;33088;51.982;5.872;2022-10-17T04:42:10;19.60;;;12.93;;
47349;SDS011;33088;51.982;5.872;2022-10-17T04:44:36;14.35;;;12.23;;
47349;SDS011;33088;51.982;5.872;2022-10-17T04:47:02;16.73;;;13.10;;
47349;SDS011;33088;51.982;5.872;2022-10-17T04:49:28;17.00;;;12.27;;
47349;SDS011;33088;51.982;5.872;2022-10-17T04:51:58;18.23;;;13.68;;
47349;SDS011;33088;51.982;5.872;2022-10-17T04:54:29;19.35;;;12.07;;
47349;SDS011;33088;51.982;5.872;2022-10-17T04:57:02;11.35;;;10.02;;
47349;SDS011;33088;51.982;5.872;2022-10-17T04:59:29;16.52;;;11.27;;
47349;SDS011;33088;51.982;5.872;2022-10-17T05:02:09;13.90;;;10.80;;
47349;SDS011;33088;51.982;5.872;2022-10-17T05:04:35;16.55;;;11.98;;
47349;SDS011;33088;51.982;5.872;2022-10-17T05:07:01;16.05;;;11.82;;
47349;SDS011;33088;51.982;5.872;2022-10-17T05:09:45;15.50;;;11.05;;
47349;SDS011;33088;51.982;5.872;2022-10-17T05:12:11;25.95;;;11.38;;
47349;SDS011;33088;51.982;5.872;2022-10-17T05:14:40;12.98;;;10.90;;
47349;SDS011;33088;51.982;5.872;2022-10-17T05:17:07;12.18;;;10.32;;
47349;SDS011;33088;51.982;5.872;2022-10-17T05:19:33;20.00;;;11.30;;
47349;SDS011;33088;51.982;5.872;2022-10-17T05:21:59;16.80;;;10.15;;
47349;SDS011;33088;51.982;5.872;2022-10-17T05:24:25;12.63;;;10.40;;
47349;SDS011;33088;51.982;5.872;2022-10-17T05:26:51;12.68;;;9.55;;
47349;SDS011;33088;51.982;5.872;2022-10-17T05:29:17;16.63;;;11.20;;
47349;SDS011;33088;51.982;5.872;2022-10-17T05:31:48;15.00;;;10.57;;
47349;SDS011;33088;51.982;5.872;2022-10-17T05:34:14;17.55;;;10.35;;
47349;SDS011;33088;51.982;5.872;2022-10-17T05:36:40;15.88;;;11.20;;
47349;SDS011;33088;51.982;5.872;2022-10-17T05:39:07;11.15;;;9.75;;
47349;SDS011;33088;51.982;5.872;2022-10-17T05:41:33;18.30;;;11.13;;
47349;SDS011;33088;51.982;5.872;2022-10-17T05:43:59;14.23;;;10.75;;
47349;SDS011;33088;51.982;5.872;2022-10-17T05:46:37;13.20;;;10.85;;
47349;SDS011;33088;51.982;5.872;2022-10-17T05:49:03;15.52;;;10.45;;
47349;SDS011;33088;51.982;5.872;2022-10-17T05:51:30;16.85;;;11.45;;
47349;SDS011;33088;51.982;5.872;2022-10-17T05:53:59;14.05;;;9.15;;
47349;SDS011;33088;51.982;5.872;2022-10-17T05:56:27;18.73;;;12.00;;
47349;SDS011;33088;51.982;5.872;2022-10-17T05:58:53;12.70;;;10.63;;
47349;SDS011;33088;51.982;5.872;2022-10-17T06:01:29;11.77;;;9.40;;
47349;SDS011;33088;51.982;5.872;2022-10-17T06:03:54;11.95;;;9.38;;
47349;SDS011;33088;51.982;5.872;2022-10-17T06:06:20;13.43;;;9.63;;
47349;SDS011;33088;51.982;5.872;2022-10-17T06:08:47;13.88;;;11.13;;
47349;SDS011;33088;51.982;5.872;2022-10-17T06:11:17;13.40;;;11.55;;
47349;SDS011;33088;51.982;5.872;2022-10-17T06:13:44;12.68;;;10.02;;
47349;SDS011;33088;51.982;5.872;2022-10-17T06:16:16;17.60;;;10.27;;
47349;SDS011;33088;51.982;5.872;2022-10-17T06:18:42;15.18;;;10.52;;
47349;SDS011;33088;51.982;5.872;2022-10-17T06:21:09;15.40;;;10.75;;
47349;SDS011;33088;51.982;5.872;2022-10-17T06:23:41;17.75;;;13.00;;
47349;SDS011;33088;51.982;5.872;2022-10-17T06:26:12;13.35;;;10.70;;
47349;SDS011;33088;51.982;5.872;2022-10-17T06:28:39;19.95;;;12.15;;
47349;SDS011;33088;51.982;5.872;2022-10-17T06:31:05;11.07;;;9.77;;
47349;SDS011;33088;51.982;5.872;2022-10-17T06:33:33;10.82;;;9.73;;
47349;SDS011;33088;51.982;5.872;2022-10-17T06:36:00;11.52;;;9.40;;
47349;SDS011;33088;51.982;5.872;2022-10-17T06:38:28;12.23;;;10.05;;
47349;SDS011;33088;51.982;5.872;2022-10-17T06:41:06;12.50;;;10.52;;
47349;SDS011;33088;51.982;5.872;2022-10-17T06:43:37;18.38;;;11.25;;
47349;SDS011;33088;51.982;5.872;2022-10-17T06:46:38;13.73;;;10.95;;
47349;SDS011;33088;51.982;5.872;2022-10-17T06:49:06;15.88;;;11.60;;
47349;SDS011;33088;51.982;5.872;2022-10-17T06:51:52;15.98;;;10.90;;
47349;SDS011;33088;51.982;5.872;2022-10-17T06:54:25;14.68;;;10.93;;
47349;SDS011;33088;51.982;5.872;2022-10-17T06:57:18;19.90;;;11.10;;
47349;SDS011;33088;51.982;5.872;2022-10-17T06:59:58;14.82;;;11.57;;
47349;SDS011;33088;51.982;5.872;2022-10-17T07:02:31;16.50;;;11.55;;
47349;SDS011;33088;51.982;5.872;2022-10-17T07:04:59;20.13;;;10.85;;
47349;SDS011;33088;51.982;5.872;2022-10-17T07:07:24;13.18;;;11.13;;
47349;SDS011;33088;51.982;5.872;2022-10-17T07:09:51;17.83;;;11.57;;
47349;SDS011;33088;51.982;5.872;2022-10-17T07:12:18;11.38;;;10.18;;
47349;SDS011;33088;51.982;5.872;2022-10-17T07:14:44;11.32;;;9.52;;
47349;SDS011;33088;51.982;5.872;2022-10-17T07:17:11;10.98;;;8.95;;
47349;SDS011;33088;51.982;5.872;2022-10-17T07:19:37;12.48;;;10.43;;
47349;SDS011;33088;51.982;5.872;2022-10-17T07:22:05;12.18;;;8.93;;
47349;SDS011;33088;51.982;5.872;2022-10-17T07:24:31;11.98;;;9.30;;
47349;SDS011;33088;51.982;5.872;2022-10-17T07:27:09;14.43;;;10.02;;
47349;SDS011;33088;51.982;5.872;2022-10-17T07:29:36;13.10;;;9.88;;
47349;SDS011;33088;51.982;5.872;2022-10-17T07:32:09;10.50;;;9.48;;
47349;SDS011;33088;51.982;5.872;2022-10-17T07:34:34;9.90;;;8.90;;
47349;SDS011;33088;51.982;5.872;2022-10-17T07:37:00;13.90;;;8.90;;
47349;SDS011;33088;51.982;5.872;2022-10-17T07:39:26;15.70;;;10.00;;
47349;SDS011;33088;51.982;5.872;2022-10-17T07:41:52;14.57;;;10.95;;
47349;SDS011;33088;51.982;5.872;2022-10-17T07:44:20;10.63;;;8.55;;
47349;SDS011;33088;51.982;5.872;2022-10-17T07:46:48;12.77;;;9.52;;
47349;SDS011;33088;51.982;5.872;2022-10-17T07:49:15;12.07;;;8.38;;
47349;SDS011;33088;51.982;5.872;2022-10-17T07:51:40;9.57;;;7.80;;
47349;SDS011;33088;51.982;5.872;2022-10-17T07:54:06;12.77;;;9.35;;
47349;SDS011;33088;51.982;5.872;2022-10-17T07:56:32;8.35;;;7.50;;
47349;SDS011;33088;51.982;5.872;2022-10-17T07:58:57;9.93;;;7.95;;
47349;SDS011;33088;51.982;5.872;2022-10-17T08:01:23;11.25;;;8.15;;
47349;SDS011;33088;51.982;5.872;2022-10-17T08:03:49;12.63;;;9.18;;
47349;SDS011;33088;51.982;5.872;2022-10-17T08:06:15;10.43;;;9.20;;
47349;SDS011;33088;51.982;5.872;2022-10-17T08:08:41;9.73;;;7.38;;
47349;SDS011;33088;51.982;5.872;2022-10-17T08:11:09;12.15;;;8.38;;
47349;SDS011;33088;51.982;5.872;2022-10-17T08:13:36;12.65;;;8.23;;
47349;SDS011;33088;51.982;5.872;2022-10-17T08:16:06;11.50;;;8.23;;
47349;SDS011;33088;51.982;5.872;2022-10-17T08:18:33;14.23;;;9.50;;
47349;SDS011;33088;51.982;5.872;2022-10-17T08:21:00;12.15;;;8.52;;
47349;SDS011;33088;51.982;5.872;2022-10-17T08:23:30;18.58;;;10.77;;
47349;SDS011;33088;51.982;5.872;2022-10-17T08:26:03;17.80;;;11.00;;
47349;SDS011;33088;51.982;5.872;2022-10-17T08:28:36;21.00;;;10.13;;
47349;SDS011;33088;51.982;5.872;2022-10-17T08:31:07;14.73;;;9.93;;
47349;SDS011;33088;51.982;5.872;2022-10-17T08:33:35;19.17;;;11.63;;
47349;SDS011;33088;51.982;5.872;2022-10-17T08:36:02;13.85;;;10.60;;
47349;SDS011;33088;51.982;5.872;2022-10-17T08:38:29;15.65;;;10.38;;
47349;SDS011;33088;51.982;5.872;2022-10-17T08:40:56;13.88;;;10.15;;
47349;SDS011;33088;51.982;5.872;2022-10-17T08:43:41;14.25;;;9.93;;
47349;SDS011;33088;51.982;5.872;2022-10-17T08:46:19;15.68;;;10.70;;
47349;SDS011;33088;51.982;5.872;2022-10-17T08:48:45;18.30;;;11.05;;
47349;SDS011;33088;51.982;5.872;2022-10-17T08:51:18;18.35;;;9.68;;
47349;SDS011;33088;51.982;5.872;2022-10-17T08:56:22;14.97;;;10.40;;
47349;SDS011;33088;51.982;5.872;2022-10-17T08:58:50;17.02;;;10.48;;
47349;SDS011;33088;51.982;5.872;2022-10-17T09:01:32;28.00;;;12.25;;
47349;SDS011;33088;51.982;5.872;2022-10-17T09:07:14;15.77;;;10.73;;
47349;SDS011;33088;51.982;5.872;2022-10-17T09:19:07;14.57;;;9.85;;
47349;SDS011;33088;51.982;5.872;2022-10-17T09:21:55;11.57;;;10.15;;
47349;SDS011;33088;51.982;5.872;2022-10-17T09:24:45;21.75;;;12.98;;
47349;SDS011;33088;51.982;5.872;2022-10-17T09:27:21;20.38;;;13.45;;
47349;SDS011;33088;51.982;5.872;2022-10-17T09:29:50;12.93;;;11.35;;
47349;SDS011;33088;51.982;5.872;2022-10-17T09:32:27;11.52;;;9.93;;
47349;SDS011;33088;51.982;5.872;2022-10-17T09:34:53;18.67;;;9.95;;
47349;SDS011;33088;51.982;5.872;2022-10-17T09:37:18;22.50;;;13.68;;
47349;SDS011;33088;51.982;5.872;2022-10-17T09:39:49;15.82;;;11.00;;
47349;SDS011;33088;51.982;5.872;2022-10-17T09:42:15;12.40;;;10.45;;
47349;SDS011;33088;51.982;5.872;2022-10-17T09:44:50;12.02;;;9.65;;
47349;SDS011;33088;51.982;5.872;2022-10-17T09:47:49;24.13;;;12.55;;
47349;SDS011;33088;51.982;5.872;2022-10-17T09:50:22;14.65;;;9.52;;
47349;SDS011;33088;51.982;5.872;2022-10-17T09:52:54;29.52;;;12.90;;
47349;SDS011;33088;51.982;5.872;2022-10-17T09:58:05;14.45;;;9.38;;
47349;SDS011;33088;51.982;5.872;2022-10-17T10:00:33;22.33;;;12.38;;
47349;SDS011;33088;51.982;5.872;2022-10-17T10:05:39;9.77;;;8.65;;
47349;SDS011;33088;51.982;5.872;2022-10-17T10:08:13;24.08;;;11.85;;
47349;SDS011;33088;51.982;5.872;2022-10-17T10:10:41;10.43;;;8.75;;
47349;SDS011;33088;51.982;5.872;2022-10-17T10:13:15;9.02;;;7.90;;
47349;SDS011;33088;51.982;5.872;2022-10-17T10:15:45;8.90;;;7.82;;
47349;SDS011;33088;51.982;5.872;2022-10-17T10:23:41;11.55;;;7.43;;
47349;SDS011;33088;51.982;5.872;2022-10-17T10:26:19;11.10;;;8.50;;
47349;SDS011;33088;51.982;5.872;2022-10-17T10:29:18;11.10;;;7.40;;
47349;SDS011;33088;51.982;5.872;2022-10-17T10:32:09;11.75;;;8.63;;
47349;SDS011;33088;51.982;5.872;2022-10-17T10:34:46;13.10;;;7.53;;
47349;SDS011;33088;51.982;5.872;2022-10-17T10:40:03;10.43;;;7.63;;
47349;SDS011;33088;51.982;5.872;2022-10-17T10:42:35;9.57;;;7.93;;
47349;SDS011;33088;51.982;5.872;2022-10-17T10:47:49;11.77;;;8.52;;
47349;SDS011;33088;51.982;5.872;2022-10-17T10:50:29;18.08;;;9.80;;
47349;SDS011;33088;51.982;5.872;2022-10-17T10:56:20;8.43;;;6.85;;
47349;SDS011;33088;51.982;5.872;2022-10-17T11:07:06;8.50;;;6.38;;
47349;SDS011;33088;51.982;5.872;2022-10-17T11:09:55;8.07;;;6.07;;
47349;SDS011;33088;51.982;5.872;2022-10-17T11:12:29;8.55;;;5.72;;
47349;SDS011;33088;51.982;5.872;2022-10-17T11:17:33;7.90;;;5.93;;
47349;SDS011;33088;51.982;5.872;2022-10-17T11:22:48;9.03;;;7.57;;
47349;SDS011;33088;51.982;5.872;2022-10-17T11:25:32;8.23;;;5.47;;
47349;SDS011;33088;51.982;5.872;2022-10-17T11:28:00;10.30;;;7.10;;
47349;SDS011;33088;51.982;5.872;2022-10-17T11:30:29;9.35;;;7.00;;
47349;SDS011;33088;51.982;5.872;2022-10-17T11:33:05;11.27;;;8.05;;
47349;SDS011;33088;51.982;5.872;2022-10-17T11:35:35;7.68;;;6.57;;
47349;SDS011;33088;51.982;5.872;2022-10-17T11:38:16;11.15;;;7.82;;
47349;SDS011;33088;51.982;5.872;2022-10-17T11:41:00;14.15;;;9.50;;
47349;SDS011;33088;51.982;5.872;2022-10-17T11:43:30;13.88;;;8.70;;
47349;SDS011;33088;51.982;5.872;2022-10-17T11:46:13;11.70;;;7.97;;
47349;SDS011;33088;51.982;5.872;2022-10-17T11:48:47;14.10;;;8.05;;
47349;SDS011;33088;51.982;5.872;2022-10-17T11:51:36;8.45;;;7.38;;
47349;SDS011;33088;51.982;5.872;2022-10-17T11:59:27;13.57;;;8.68;;
47349;SDS011;33088;51.982;5.872;2022-10-17T12:02:26;12.77;;;8.98;;
47349;SDS011;33088;51.982;5.872;2022-10-17T12:07:44;12.80;;;8.88;;
47349;SDS011;33088;51.982;5.872;2022-10-17T12:12:57;12.15;;;9.25;;
47349;SDS011;33088;51.982;5.872;2022-10-17T12:18:44;12.57;;;10.02;;
47349;SDS011;33088;51.982;5.872;2022-10-17T12:21:10;17.85;;;11.38;;
47349;SDS011;33088;51.982;5.872;2022-10-17T12:23:36;14.00;;;9.85;;
47349;SDS011;33088;51.982;5.872;2022-10-17T12:26:06;12.18;;;10.23;;
47349;SDS011;33088;51.982;5.872;2022-10-17T12:34:03;11.00;;;8.68;;
47349;SDS011;33088;51.982;5.872;2022-10-17T12:38:51;18.10;;;12.32;;
47349;SDS011;33088;51.982;5.872;2022-10-17T12:49:15;9.55;;;8.50;;
47349;SDS011;33088;51.982;5.872;2022-10-17T12:52:05;10.23;;;9.05;;
47349;SDS011;33088;51.982;5.872;2022-10-17T12:54:41;14.00;;;9.32;;
47349;SDS011;33088;51.982;5.872;2022-10-17T12:57:18;13.73;;;9.90;;
47349;SDS011;33088;51.982;5.872;2022-10-17T12:59:55;13.85;;;8.98;;
47349;SDS011;33088;51.982;5.872;2022-10-17T13:02:23;12.32;;;9.30;;
47349;SDS011;33088;51.982;5.872;2022-10-17T13:04:52;13.52;;;9.38;;
47349;SDS011;33088;51.982;5.872;2022-10-17T13:07:23;16.67;;;10.65;;
47349;SDS011;33088;51.982;5.872;2022-10-17T13:09:49;15.73;;;11.07;;
47349;SDS011;33088;51.982;5.872;2022-10-17T13:12:20;11.60;;;9.18;;
47349;SDS011;33088;51.982;5.872;2022-10-17T13:14:49;11.00;;;9.20;;
47349;SDS011;33088;51.982;5.872;2022-10-17T13:17:21;11.35;;;9.45;;
47349;SDS011;33088;51.982;5.872;2022-10-17T13:19:48;12.57;;;10.23;;
47349;SDS011;33088;51.982;5.872;2022-10-17T13:24:47;10.02;;;8.93;;
47349;SDS011;33088;51.982;5.872;2022-10-17T13:27:21;10.13;;;8.52;;
47349;SDS011;33088;51.982;5.872;2022-10-17T13:29:51;15.73;;;10.05;;
47349;SDS011;33088;51.982;5.872;2022-10-17T13:32:16;17.27;;;9.20;;
47349;SDS011;33088;51.982;5.872;2022-10-17T13:34:42;15.15;;;8.95;;
47349;SDS011;33088;51.982;5.872;2022-10-17T13:37:11;14.98;;;9.77;;
47349;SDS011;33088;51.982;5.872;2022-10-17T13:39:40;11.70;;;10.00;;
47349;SDS011;33088;51.982;5.872;2022-10-17T13:42:21;14.13;;;10.30;;
47349;SDS011;33088;51.982;5.872;2022-10-17T13:44:54;16.90;;;11.05;;
47349;SDS011;33088;51.982;5.872;2022-10-17T13:47:28;13.60;;;10.40;;
47349;SDS011;33088;51.982;5.872;2022-10-17T13:49:57;11.00;;;9.73;;
47349;SDS011;33088;51.982;5.872;2022-10-17T13:52:24;14.50;;;10.23;;
47349;SDS011;33088;51.982;5.872;2022-10-17T13:54:52;14.93;;;9.98;;
47349;SDS011;33088;51.982;5.872;2022-10-17T13:57:27;14.98;;;11.10;;
47349;SDS011;33088;51.982;5.872;2022-10-17T13:59:56;14.77;;;11.23;;
47349;SDS011;33088;51.982;5.872;2022-10-17T14:02:33;12.52;;;9.98;;
47349;SDS011;33088;51.982;5.872;2022-10-17T14:10:29;14.48;;;11.95;;
47349;SDS011;33088;51.982;5.872;2022-10-17T14:12:55;13.88;;;12.10;;
47349;SDS011;33088;51.982;5.872;2022-10-17T14:15:24;12.95;;;11.15;;
47349;SDS011;33088;51.982;5.872;2022-10-17T14:17:56;13.68;;;11.95;;
47349;SDS011;33088;51.982;5.872;2022-10-17T14:20:27;16.83;;;13.77;;
47349;SDS011;33088;51.982;5.872;2022-10-17T14:22:54;14.93;;;13.35;;
47349;SDS011;33088;51.982;5.872;2022-10-17T14:25:34;13.25;;;11.98;;
47349;SDS011;33088;51.982;5.872;2022-10-17T14:33:06;14.60;;;13.07;;
47349;SDS011;33088;51.982;5.872;2022-10-17T14:35:36;15.73;;;13.07;;
47349;SDS011;33088;51.982;5.872;2022-10-17T14:38:04;15.43;;;13.43;;
47349;SDS011;33088;51.982;5.872;2022-10-17T14:40:31;16.27;;;13.43;;
47349;SDS011;33088;51.982;5.872;2022-10-17T14:43:04;17.23;;;12.95;;
47349;SDS011;33088;51.982;5.872;2022-10-17T14:45:34;18.45;;;15.13;;
47349;SDS011;33088;51.982;5.872;2022-10-17T14:48:08;14.57;;;13.05;;
47349;SDS011;33088;51.982;5.872;2022-10-17T14:50:39;17.10;;;13.45;;
47349;SDS011;33088;51.982;5.872;2022-10-17T14:55:35;17.13;;;13.32;;
47349;SDS011;33088;51.982;5.872;2022-10-17T14:58:14;12.95;;;11.70;;
47349;SDS011;33088;51.982;5.872;2022-10-17T15:00:41;14.02;;;11.27;;
47349;SDS011;33088;51.982;5.872;2022-10-17T15:03:07;11.48;;;10.27;;
47349;SDS011;33088;51.982;5.872;2022-10-17T15:05:33;12.38;;;11.20;;
47349;SDS011;33088;51.982;5.872;2022-10-17T15:07:59;18.08;;;13.70;;
47349;SDS011;33088;51.982;5.872;2022-10-17T15:10:31;14.02;;;11.77;;
47349;SDS011;33088;51.982;5.872;2022-10-17T15:13:00;17.73;;;13.55;;
47349;SDS011;33088;51.982;5.872;2022-10-17T15:15:27;12.52;;;11.35;;
47349;SDS011;33088;51.982;5.872;2022-10-17T15:17:53;18.05;;;13.50;;
47349;SDS011;33088;51.982;5.872;2022-10-17T15:20:19;19.27;;;14.93;;
47349;SDS011;33088;51.982;5.872;2022-10-17T15:22:49;13.93;;;12.52;;
47349;SDS011;33088;51.982;5.872;2022-10-17T15:25:19;12.93;;;11.70;;
47349;SDS011;33088;51.982;5.872;2022-10-17T15:27:45;15.75;;;13.75;;
47349;SDS011;33088;51.982;5.872;2022-10-17T15:30:15;14.23;;;12.77;;
47349;SDS011;33088;51.982;5.872;2022-10-17T15:32:46;15.32;;;12.32;;
47349;SDS011;33088;51.982;5.872;2022-10-17T15:35:13;15.20;;;13.07;;
47349;SDS011;33088;51.982;5.872;2022-10-17T15:37:39;19.70;;;15.32;;
47349;SDS011;33088;51.982;5.872;2022-10-17T15:40:08;15.50;;;13.55;;
47349;SDS011;33088;51.982;5.872;2022-10-17T15:42:39;16.27;;;14.63;;
47349;SDS011;33088;51.982;5.872;2022-10-17T15:45:05;15.10;;;13.50;;
47349;SDS011;33088;51.982;5.872;2022-10-17T15:47:31;16.17;;;14.07;;
47349;SDS011;33088;51.982;5.872;2022-10-17T15:49:57;21.73;;;13.60;;
47349;SDS011;33088;51.982;5.872;2022-10-17T15:52:24;19.08;;;16.23;;
47349;SDS011;33088;51.982;5.872;2022-10-17T15:54:51;16.13;;;13.55;;
47349;SDS011;33088;51.982;5.872;2022-10-17T15:59:44;15.25;;;13.65;;
47349;SDS011;33088;51.982;5.872;2022-10-17T16:02:12;16.90;;;15.10;;
47349;SDS011;33088;51.982;5.872;2022-10-17T16:04:38;15.05;;;13.52;;
47349;SDS011;33088;51.982;5.872;2022-10-17T16:07:04;15.95;;;14.40;;
47349;SDS011;33088;51.982;5.872;2022-10-17T16:09:31;18.27;;;14.75;;
47349;SDS011;33088;51.982;5.872;2022-10-17T16:11:58;19.77;;;15.07;;
47349;SDS011;33088;51.982;5.872;2022-10-17T16:14:25;18.05;;;16.23;;
47349;SDS011;33088;51.982;5.872;2022-10-17T16:16:51;22.23;;;17.63;;
47349;SDS011;33088;51.982;5.872;2022-10-17T16:19:16;17.25;;;15.55;;
47349;SDS011;33088;51.982;5.872;2022-10-17T16:21:42;17.83;;;15.40;;
47349;SDS011;33088;51.982;5.872;2022-10-17T16:24:09;20.90;;;16.00;;
47349;SDS011;33088;51.982;5.872;2022-10-17T16:26:39;17.08;;;15.25;;
47349;SDS011;33088;51.982;5.872;2022-10-17T16:29:04;20.80;;;17.23;;
47349;SDS011;33088;51.982;5.872;2022-10-17T16:31:31;21.50;;;16.85;;
47349;SDS011;33088;51.982;5.872;2022-10-17T16:33:59;19.95;;;17.15;;
47349;SDS011;33088;51.982;5.872;2022-10-17T16:36:26;18.13;;;16.15;;
47349;SDS011;33088;51.982;5.872;2022-10-17T16:38:52;19.92;;;16.27;;
47349;SDS011;33088;51.982;5.872;2022-10-17T16:41:31;15.90;;;14.13;;
47349;SDS011;33088;51.982;5.872;2022-10-17T16:43:59;19.52;;;17.30;;
47349;SDS011;33088;51.982;5.872;2022-10-17T16:46:27;18.02;;;16.08;;
47349;SDS011;33088;51.982;5.872;2022-10-17T16:48:55;17.90;;;16.00;;
47349;SDS011;33088;51.982;5.872;2022-10-17T16:51:21;19.85;;;16.02;;
47349;SDS011;33088;51.982;5.872;2022-10-17T16:53:47;19.38;;;17.30;;
47349;SDS011;33088;51.982;5.872;2022-10-17T16:56:18;23.75;;;18.40;;
47349;SDS011;33088;51.982;5.872;2022-10-17T16:58:45;24.33;;;17.75;;
47349;SDS011;33088;51.982;5.872;2022-10-17T17:01:13;18.48;;;16.58;;
47349;SDS011;33088;51.982;5.872;2022-10-17T17:03:41;18.90;;;15.48;;
47349;SDS011;33088;51.982;5.872;2022-10-17T17:06:10;21.08;;;18.58;;
47349;SDS011;33088;51.982;5.872;2022-10-17T17:08:41;28.55;;;18.95;;
47349;SDS011;33088;51.982;5.872;2022-10-17T17:11:08;21.92;;;19.73;;
47349;SDS011;33088;51.982;5.872;2022-10-17T17:13:34;24.10;;;19.77;;